NWS Home NWS Lubbock West Texas Mesonet North Sector Latest Conditions as of 1252 AM, Sun Jan 19, 2020

Latest   N   C   S   Daily Sum   3hrΔ   24hrΔ   Soil Data 
Site Map   24hr Precip   72hr Precip   Google Plot


Station Time of Last Temp Dew Pt. RH Wind Direction Wind Speed Wind Gust Max Wind Max Temp Min Temp Max RH Min RH Altimeter 1HR Rain Today's Rain Solar Rad Wind Chill
Adrian 6WSW  12:45 AM 27 21 76% S1415 20 mph 165° @ 1215 AM 29 27 76 69 30.40" 0 0.00 0 16
Aiken 3WSW  12:45 AM 27 23 84% SE88 10 mph 152° @ 1201 AM 29 27 84 79 30.45" 0 0.00 0 19
Amarillo 15NNW   12:45 AM 28 17 63% S1212 14 mph 164° @ 1223 AM 29 27 65 63 30.42" 0 0.00 0 18
Amarillo 7SSE  12:45 AM 23 14 69% S66 8 mph 192° @ 1237 AM 27 23 69 59 30.44" 0 0.00 0 16
Amarillo 9NNE  12:45 AM 26 18 74% S89 11 mph 184° @ 1209 AM 27 26 74 70 30.43" 0 0.00 0 17
Amherst 1NE  12:45 AM 26 20 80% SE56 10 mph 143° @ 1220 AM 26 26 81 80 30.42" 0 0.00 0 20
Bootleg 11WNW  12:45 AM 26 20 79% SE1113 14 mph 154° @ 1243 AM 28 25 80 73 30.41" 0 0.00 0 16
Boys Ranch 1WSW  12:45 AM 24 18 77% SE23 6 mph 52° @ 1209 AM 27 24 78 70 30.43" 0 0.00 0  
Canadian 6E  12:35 AM 28 17 64% SE34 7 mph 115° @ 1218 AM 28 24 71 64 30.44" 0 0.00 0  
Caprock Canyons State Park  12:45 AM 31 22 69% S1010 11 mph 205° @ 1228 AM 32 31 70 66 30.48" 0 0.00 0 23
Childress 2NNE  12:45 AM 33 21 63% SE78 8 mph 132° @ 1240 AM 34 33 64 62 30.48" 0 0.00 0 27
Clarendon 2WSW  12:45 AM 30 21 69% SE89 12 mph 151° @ 1225 AM 31 30 70 69 30.46" 0 0.00 0 23
Claude 12SW  12:45 AM 31 19 62% SE910 12 mph 96° @ 1206 AM 31 26 71 62 30.43" 0 0.00 0 23
Dimmitt 2NE  12:45 AM 25 20 81% S1011 11 mph 166° @ 1245 AM 25 24 83 80 30.42" 0 0.00 0 15
Dozier 3W  12:45 AM 29 20 67% SW23 3 mph 234° @ 1240 AM 31 27 74 61 30.49" 0 0.00 0  
Earth 9WSW  12:45 AM 27 22 79% SE1011 13 mph 160° @ 1237 AM 27 23 85 79 30.43" 0 0.00 0 18
Endee NM 2SW  12:45 AM 28 22 78% S77 11 mph 143° @ 1222 AM 28 28 78 75 30.40" 0 0.00 0 21
Estelline 3SSE  12:45 AM 33 22 64% S67 10 mph 169° @ 1241 AM 33 31 73 63 30.49" 0 0.00 0 27
Floydada 2NNE  12:45 AM 26 19 76% SE56 9 mph 151° @ 1205 AM 28 26 78 75 30.45" 0 0.00 0 20
Friona 2NE  12:45 AM 27 23 83% S1015 17 mph 151° @ 1205 AM 28 27 83 79 30.42" 0 0.00 0 17
Fritch 1WNW  12:45 AM 31 19 62% S78 11 mph 175° @ 1232 AM 31 30 62 61 30.43" 0 0.00 0 24
Goodlett 3W  12:45 AM 32 23 70% SE77 8 mph 117° @ 1220 AM 35 31 74 59 30.49" 0 0.00 0 26
Goodnight  12:45 AM 28 21 74% S77 9 mph 173° @ 1244 AM 29 27 76 70 30.46" 0 0.00 0 21
Happy 1E  12:45 AM 22 17 83% S67 10 mph 174° @ 1213 AM 24 21 85 78 30.44" 0 0.00 0 14
Hart 3N  12:45 AM 22 18 85% SE55 8 mph 153° @ 1215 AM 25 22 85 83 30.43" 0 0.00 0  
Hereford 2NW  12:45 AM 26 19 75% SE68 11 mph 159° @ 1230 AM 28 26 75 71 30.41" 0 0.00 0 19
Lake McClellan 2NW  12:45 AM 31 17 56% SE78 13 mph 151° @ 1239 AM 32 30 57 54 30.45" 0 0.00 0 25
Lesley 2S  12:45 AM 32 25 75% S23 7 mph 92° @ 1201 AM 34 32 75 61 30.49" 0 0.00 0  
McLean 1E  12:45 AM 30 18 60% S67 10 mph 175° @ 1240 AM 30 30 61 58 30.44" 0 0.00 0 24
Memphis 1NE  12:45 AM 29 24 85% NW45 5 mph 305° @ 1245 AM 29 27 88 85 30.49" 0 0.00 0  
Muleshoe 2SSW  12:45 AM 30 23 77% SE1012 13 mph 155° @ 1235 AM 30 25 87 77 30.42" 0 0.00 0 21
Northfield 1S  12:45 AM 31 20 65% SW45 9 mph 138° @ 1205 AM 33 30 67 59 30.49" 0 0.00 0  
Odell 4ENE  12:45 AM 30 23 73% N22 4 mph 52° @ 1201 AM 33 30 73 60 30.51" 0 0.00 0  
Olton 6S  12:45 AM 25 21 86% SE910 11 mph 148° @ 1220 AM 26 25 86 85 30.44" 0 0.00 0 16
Palo Duro 4E (JA Ranch)  12:45 AM 20 17 88% SW22 4 mph 215° @ 1224 AM 21 20 88 85 30.48" 0 0.00 0  
Palo Duro Canyon SP Floor  12:45 AM 26 17 70% NW11 3 mph 311° @ 1212 AM 26 24 75 69 30.47" 0 0.00 0  
Palo Duro Canyon State Park Rim  12:45 AM 28 15 57% E23 6 mph 173° @ 1232 AM 30 28 57 52 30.45" 0 0.00 0  
Palo Duro Reservoir 1NW   12:45 AM 31 19 62% S910 10 mph 182° @ 1216 AM 31 30 64 61 30.43" 0 0.00 0 23
Pampa 2E  12:45 AM 26 17 71% S1012 12 mph 163° @ 1245 AM 28 25 71 63 30.43" 0 0.00 0 16
Panhandle 1SSW  12:45 AM 27 18 67% SE1012 13 mph 135° @ 1238 AM 27 25 72 67 30.45" 0 0.00 0 17
Plainview 1S  12:45 AM 31 23 74% SE711 12 mph 149° @ 1225 AM 31 30 78 74 30.44" 0 0.00 0 24
Romero 11SSW  12:45 AM 27 19 71% NE56 9 mph 71° @ 1238 AM 29 27 72 68 30.39" 0 0.00 0 21
Silverton 7ESE  12:45 AM 26 19 73% SE79 9 mph 133° @ 1245 AM 27 25 78 73 30.45" 0 0.00 0 18
South Plains 3ENE  12:45 AM 25 20 80% SE89 10 mph 131° @ 1244 AM 26 23 86 78 30.46" 0 0.00 0 16
Stinnett 1NNW  12:45 AM 30 16 56% S89 9 mph 165° @ 1243 AM 30 29 57 55 30.43" 0 0.00 0 22
Stratford 4WNW  12:45 AM 28 18 66% S78 9 mph 167° @ 1233 AM 29 28 68 65 30.40" 0 0.00 0 21
Tulia 2ENE  12:45 AM 28 21 73% S1012 13 mph 151° @ 1235 AM 29 26 79 73 30.43" 0 0.00 0 19
Turkey 2WSW  12:45 AM 32 23 71% S78 8 mph 172° @ 1245 AM 33 32 71 66 30.48" 0 0.00 0 25
Umbarger 3NNE  12:45 AM 27 19 73% S78 12 mph 171° @ 1221 AM 29 27 73 69 30.43" 0 0.00 0 19
Vigo Park  12:45 AM 24 19 80% SE99 12 mph 125° @ 1227 AM 26 24 82 76 30.45" 0 0.00 0 15

West Texas Mesonet Home   Site Map/Menu  NWS Lubbock Soil Data  Daily Summary Page  24hr Precip  72hr Precip  Google Plot